sensor_id;sensor_type;location;lat;lon;timestamp;pressure;altitude;pressure_sealevel;temperature;humidity
5500;BME280;2772;42.700;23.304;2023-03-26T00:01:52;94656.78;;;12.00;100.00
5500;BME280;2772;42.700;23.304;2023-03-26T00:04:19;94662.13;;;12.00;100.00
5500;BME280;2772;42.700;23.304;2023-03-26T00:06:46;94667.44;;;12.00;100.00
5500;BME280;2772;42.700;23.304;2023-03-26T00:09:14;94662.25;;;12.03;100.00
5500;BME280;2772;42.700;23.304;2023-03-26T00:11:42;94664.50;;;12.13;100.00
5500;BME280;2772;42.700;23.304;2023-03-26T00:14:09;94663.19;;;12.19;100.00
5500;BME280;2772;42.700;23.304;2023-03-26T00:16:39;94653.00;;;12.01;100.00
5500;BME280;2772;42.700;23.304;2023-03-26T00:19:08;94645.13;;;11.84;100.00
5500;BME280;2772;42.700;23.304;2023-03-26T00:21:35;94637.00;;;11.80;100.00
5500;BME280;2772;42.700;23.304;2023-03-26T00:24:04;94632.88;;;11.83;100.00
5500;BME280;2772;42.700;23.304;2023-03-26T00:26:32;94627.88;;;11.81;100.00
5500;BME280;2772;42.700;23.304;2023-03-26T00:28:59;94632.03;;;11.70;100.00
5500;BME280;2772;42.700;23.304;2023-03-26T00:31:28;94630.03;;;11.59;100.00
5500;BME280;2772;42.700;23.304;2023-03-26T00:33:55;94620.72;;;11.73;100.00
5500;BME280;2772;42.700;23.304;2023-03-26T00:36:24;94624.59;;;11.76;100.00
5500;BME280;2772;42.700;23.304;2023-03-26T00:38:51;94620.94;;;11.60;100.00
5500;BME280;2772;42.700;23.304;2023-03-26T00:41:19;94615.13;;;11.66;100.00
5500;BME280;2772;42.700;23.304;2023-03-26T00:43:51;94625.53;;;11.51;100.00
5500;BME280;2772;42.700;23.304;2023-03-26T00:46:20;94622.50;;;11.61;100.00
5500;BME280;2772;42.700;23.304;2023-03-26T00:48:47;94623.00;;;11.54;100.00
5500;BME280;2772;42.700;23.304;2023-03-26T00:51:16;94623.44;;;11.65;100.00
5500;BME280;2772;42.700;23.304;2023-03-26T00:53:45;94636.16;;;11.68;100.00
5500;BME280;2772;42.700;23.304;2023-03-26T00:56:13;94628.72;;;11.44;100.00
5500;BME280;2772;42.700;23.304;2023-03-26T00:58:40;94621.81;;;11.43;100.00
5500;BME280;2772;42.700;23.304;2023-03-26T01:01:09;94624.38;;;11.69;100.00
5500;BME280;2772;42.700;23.304;2023-03-26T01:03:39;94624.38;;;11.69;100.00
5500;BME280;2772;42.700;23.304;2023-03-26T01:06:07;94633.03;;;11.57;100.00
5500;BME280;2772;42.700;23.304;2023-03-26T01:08:38;94633.22;;;11.52;100.00
5500;BME280;2772;42.700;23.304;2023-03-26T01:11:11;94638.69;;;11.56;100.00
5500;BME280;2772;42.700;23.304;2023-03-26T01:13:42;94642.59;;;11.58;100.00
5500;BME280;2772;42.700;23.304;2023-03-26T01:16:17;94637.09;;;11.63;100.00
5500;BME280;2772;42.700;23.304;2023-03-26T01:18:45;94641.84;;;11.49;100.00
5500;BME280;2772;42.700;23.304;2023-03-26T01:21:13;94645.50;;;11.45;100.00
5500;BME280;2772;42.700;23.304;2023-03-26T01:23:49;94643.44;;;11.50;100.00
5500;BME280;2772;42.700;23.304;2023-03-26T01:29:18;94647.94;;;11.58;100.00
5500;BME280;2772;42.700;23.304;2023-03-26T01:31:52;94650.28;;;11.60;100.00
5500;BME280;2772;42.700;23.304;2023-03-26T01:34:27;94666.78;;;11.53;100.00
5500;BME280;2772;42.700;23.304;2023-03-26T01:37:05;94655.78;;;11.55;100.00
5500;BME280;2772;42.700;23.304;2023-03-26T01:39:38;94652.66;;;11.53;100.00
5500;BME280;2772;42.700;23.304;2023-03-26T01:42:20;94655.28;;;11.61;100.00
5500;BME280;2772;42.700;23.304;2023-03-26T01:44:54;94652.34;;;11.63;100.00
5500;BME280;2772;42.700;23.304;2023-03-26T01:47:22;94656.03;;;11.70;100.00
5500;BME280;2772;42.700;23.304;2023-03-26T01:49:49;94667.09;;;11.81;100.00
5500;BME280;2772;42.700;23.304;2023-03-26T01:52:19;94648.44;;;11.81;100.00
5500;BME280;2772;42.700;23.304;2023-03-26T01:54:46;94662.28;;;11.74;100.00
5500;BME280;2772;42.700;23.304;2023-03-26T01:57:19;94654.50;;;11.61;100.00
5500;BME280;2772;42.700;23.304;2023-03-26T02:00:10;94658.28;;;11.60;100.00
5500;BME280;2772;42.700;23.304;2023-03-26T02:02:51;94656.78;;;11.50;100.00
5500;BME280;2772;42.700;23.304;2023-03-26T02:05:25;94653.97;;;11.47;100.00
5500;BME280;2772;42.700;23.304;2023-03-26T02:07:59;94656.06;;;11.33;100.00
5500;BME280;2772;42.700;23.304;2023-03-26T02:10:31;94654.97;;;11.34;100.00
5500;BME280;2772;42.700;23.304;2023-03-26T02:13:00;94654.53;;;11.23;100.00
5500;BME280;2772;42.700;23.304;2023-03-26T02:15:28;94648.31;;;11.19;100.00
5500;BME280;2772;42.700;23.304;2023-03-26T02:17:54;94659.78;;;11.11;100.00
5500;BME280;2772;42.700;23.304;2023-03-26T02:20:24;94662.50;;;10.94;100.00
5500;BME280;2772;42.700;23.304;2023-03-26T02:22:54;94666.41;;;11.05;100.00
5500;BME280;2772;42.700;23.304;2023-03-26T02:25:21;94664.50;;;11.05;100.00
5500;BME280;2772;42.700;23.304;2023-03-26T02:27:50;94654.13;;;11.12;100.00
5500;BME280;2772;42.700;23.304;2023-03-26T02:30:20;94663.34;;;11.15;100.00
5500;BME280;2772;42.700;23.304;2023-03-26T02:32:50;94657.53;;;11.21;100.00
5500;BME280;2772;42.700;23.304;2023-03-26T02:35:18;94665.81;;;11.29;100.00
5500;BME280;2772;42.700;23.304;2023-03-26T02:37:45;94665.50;;;11.30;100.00
5500;BME280;2772;42.700;23.304;2023-03-26T02:40:15;94659.47;;;11.42;100.00
5500;BME280;2772;42.700;23.304;2023-03-26T02:42:42;94671.88;;;11.38;100.00
5500;BME280;2772;42.700;23.304;2023-03-26T02:45:09;94688.47;;;11.43;100.00
5500;BME280;2772;42.700;23.304;2023-03-26T02:47:37;94683.75;;;11.49;100.00
5500;BME280;2772;42.700;23.304;2023-03-26T02:50:05;94682.09;;;11.36;100.00
5500;BME280;2772;42.700;23.304;2023-03-26T02:52:33;94686.69;;;11.18;100.00
5500;BME280;2772;42.700;23.304;2023-03-26T02:55:00;94685.31;;;11.20;100.00
5500;BME280;2772;42.700;23.304;2023-03-26T02:57:27;94689.56;;;11.13;100.00
5500;BME280;2772;42.700;23.304;2023-03-26T02:59:54;94694.28;;;11.07;100.00
5500;BME280;2772;42.700;23.304;2023-03-26T03:02:20;94699.44;;;11.04;100.00
5500;BME280;2772;42.700;23.304;2023-03-26T03:04:49;94698.56;;;10.91;100.00
5500;BME280;2772;42.700;23.304;2023-03-26T03:07:17;94695.75;;;10.88;100.00
5500;BME280;2772;42.700;23.304;2023-03-26T03:09:44;94698.28;;;10.76;100.00
5500;BME280;2772;42.700;23.304;2023-03-26T03:12:11;94699.06;;;10.68;100.00
5500;BME280;2772;42.700;23.304;2023-03-26T03:14:38;94705.81;;;10.74;100.00
5500;BME280;2772;42.700;23.304;2023-03-26T03:17:05;94700.50;;;10.65;100.00
5500;BME280;2772;42.700;23.304;2023-03-26T03:19:31;94705.06;;;10.56;100.00
5500;BME280;2772;42.700;23.304;2023-03-26T03:21:59;94693.94;;;10.63;100.00
5500;BME280;2772;42.700;23.304;2023-03-26T03:24:26;94706.31;;;10.42;100.00
5500;BME280;2772;42.700;23.304;2023-03-26T03:26:53;94705.69;;;10.45;100.00
5500;BME280;2772;42.700;23.304;2023-03-26T03:29:21;94709.59;;;10.39;100.00
5500;BME280;2772;42.700;23.304;2023-03-26T03:31:48;94713.84;;;10.31;100.00
5500;BME280;2772;42.700;23.304;2023-03-26T03:34:14;94704.59;;;10.37;100.00
5500;BME280;2772;42.700;23.304;2023-03-26T03:36:41;94695.06;;;10.28;100.00
5500;BME280;2772;42.700;23.304;2023-03-26T03:39:14;94703.03;;;10.28;100.00
5500;BME280;2772;42.700;23.304;2023-03-26T03:41:41;94689.56;;;10.24;100.00
5500;BME280;2772;42.700;23.304;2023-03-26T03:44:07;94698.03;;;10.26;100.00
5500;BME280;2772;42.700;23.304;2023-03-26T03:46:34;94695.06;;;10.28;100.00
5500;BME280;2772;42.700;23.304;2023-03-26T03:49:01;94681.91;;;10.23;100.00
5500;BME280;2772;42.700;23.304;2023-03-26T03:51:28;94690.69;;;10.15;100.00
5500;BME280;2772;42.700;23.304;2023-03-26T03:53:55;94693.19;;;10.11;100.00
5500;BME280;2772;42.700;23.304;2023-03-26T03:56:23;94693.19;;;10.11;100.00
5500;BME280;2772;42.700;23.304;2023-03-26T03:58:50;94696.47;;;10.17;100.00
5500;BME280;2772;42.700;23.304;2023-03-26T04:01:17;94693.47;;;10.18;100.00
5500;BME280;2772;42.700;23.304;2023-03-26T04:03:47;94703.50;;;10.21;100.00
5500;BME280;2772;42.700;23.304;2023-03-26T04:06:15;94707.13;;;10.25;100.00
5500;BME280;2772;42.700;23.304;2023-03-26T04:08:43;94704.94;;;10.27;100.00
5500;BME280;2772;42.700;23.304;2023-03-26T04:11:10;94705.09;;;10.22;100.00
5500;BME280;2772;42.700;23.304;2023-03-26T04:13:38;94716.50;;;10.23;100.00
5500;BME280;2772;42.700;23.304;2023-03-26T04:16:05;94716.19;;;10.24;100.00
5500;BME280;2772;42.700;23.304;2023-03-26T04:18:32;94724.16;;;10.24;100.00
5500;BME280;2772;42.700;23.304;2023-03-26T04:20:59;94731.53;;;10.27;100.00
5500;BME280;2772;42.700;23.304;2023-03-26T04:23:27;94736.38;;;10.34;100.00
5500;BME280;2772;42.700;23.304;2023-03-26T04:25:54;94740.31;;;10.36;100.00
5500;BME280;2772;42.700;23.304;2023-03-26T04:28:26;94754.41;;;10.28;100.00
5500;BME280;2772;42.700;23.304;2023-03-26T04:30:58;94757.97;;;10.32;100.00
5500;BME280;2772;42.700;23.304;2023-03-26T04:33:27;94770.66;;;10.35;100.00
5500;BME280;2772;42.700;23.304;2023-03-26T04:35:54;94766.31;;;10.39;100.00
5500;BME280;2772;42.700;23.304;2023-03-26T04:38:26;94770.53;;;10.40;100.00
5500;BME280;2772;42.700;23.304;2023-03-26T04:40:53;94783.38;;;10.47;100.00
5500;BME280;2772;42.700;23.304;2023-03-26T04:43:24;94780.88;;;10.50;100.00
5500;BME280;2772;42.700;23.304;2023-03-26T04:45:51;94790.25;;;10.48;100.00
5500;BME280;2772;42.700;23.304;2023-03-26T04:48:19;94793.69;;;10.48;100.00
5500;BME280;2772;42.700;23.304;2023-03-26T04:50:46;94791.22;;;10.52;100.00
5500;BME280;2772;42.700;23.304;2023-03-26T04:53:16;94796.53;;;10.52;100.00
5500;BME280;2772;42.700;23.304;2023-03-26T04:55:48;94805.91;;;10.49;100.00
5500;BME280;2772;42.700;23.304;2023-03-26T04:58:16;94795.59;;;10.56;100.00
5500;BME280;2772;42.700;23.304;2023-03-26T05:00:43;94802.03;;;10.55;100.00
5500;BME280;2772;42.700;23.304;2023-03-26T05:03:12;94800.75;;;10.53;100.00
5500;BME280;2772;42.700;23.304;2023-03-26T05:05:40;94801.22;;;10.46;100.00
5500;BME280;2772;42.700;23.304;2023-03-26T05:08:06;94799.50;;;10.59;100.00
5500;BME280;2772;42.700;23.304;2023-03-26T05:10:33;94817.19;;;10.72;100.00
5500;BME280;2772;42.700;23.304;2023-03-26T05:13:00;94817.53;;;10.70;100.00
5500;BME280;2772;42.700;23.304;2023-03-26T05:15:27;94826.63;;;10.69;100.00
5500;BME280;2772;42.700;23.304;2023-03-26T05:17:53;94825.34;;;10.67;100.00
5500;BME280;2772;42.700;23.304;2023-03-26T05:20:22;94818.13;;;10.76;100.00
5500;BME280;2772;42.700;23.304;2023-03-26T05:22:52;94827.41;;;10.78;100.00
5500;BME280;2772;42.700;23.304;2023-03-26T05:25:19;94832.25;;;10.76;100.00
5500;BME280;2772;42.700;23.304;2023-03-26T05:27:45;94836.78;;;10.84;100.00
5500;BME280;2772;42.700;23.304;2023-03-26T05:30:13;94839.13;;;10.86;100.00
5500;BME280;2772;42.700;23.304;2023-03-26T05:32:40;94844.00;;;10.92;100.00
5500;BME280;2772;42.700;23.304;2023-03-26T05:35:07;94837.25;;;11.03;100.00
5500;BME280;2772;42.700;23.304;2023-03-26T05:37:34;94833.63;;;10.99;100.00
5500;BME280;2772;42.700;23.304;2023-03-26T05:40:05;94838.97;;;11.08;100.00
5500;BME280;2772;42.700;23.304;2023-03-26T05:42:38;94833.47;;;11.04;100.00
5500;BME280;2772;42.700;23.304;2023-03-26T05:45:06;94841.44;;;11.21;100.00
5500;BME280;2772;42.700;23.304;2023-03-26T05:47:34;94845.50;;;11.36;100.00
5500;BME280;2772;42.700;23.304;2023-03-26T05:50:00;94852.09;;;11.39;100.00
5500;BME280;2772;42.700;23.304;2023-03-26T05:52:27;94862.41;;;11.49;100.00
5500;BME280;2772;42.700;23.304;2023-03-26T05:54:55;94860.41;;;11.46;100.00
5500;BME280;2772;42.700;23.304;2023-03-26T05:57:23;94853.66;;;11.40;100.00
5500;BME280;2772;42.700;23.304;2023-03-26T05:59:52;94850.16;;;11.48;100.00
5500;BME280;2772;42.700;23.304;2023-03-26T06:02:19;94852.41;;;11.46;100.00
5500;BME280;2772;42.700;23.304;2023-03-26T06:04:46;94846.09;;;11.50;100.00
5500;BME280;2772;42.700;23.304;2023-03-26T06:07:12;94847.19;;;11.58;100.00
5500;BME280;2772;42.700;23.304;2023-03-26T06:09:41;94842.88;;;11.82;100.00
5500;BME280;2772;42.700;23.304;2023-03-26T06:12:09;94841.34;;;12.10;100.00
5500;BME280;2772;42.700;23.304;2023-03-26T06:14:37;94841.72;;;12.00;100.00
5500;BME280;2772;42.700;23.304;2023-03-26T06:17:04;94839.09;;;12.21;100.00
5500;BME280;2772;42.700;23.304;2023-03-26T06:19:30;94849.66;;;12.17;100.00
5500;BME280;2772;42.700;23.304;2023-03-26T06:21:57;94855.94;;;12.13;100.00
5500;BME280;2772;42.700;23.304;2023-03-26T06:24:24;94847.97;;;12.04;100.00
5500;BME280;2772;42.700;23.304;2023-03-26T06:26:50;94844.06;;;12.02;100.00
5500;BME280;2772;42.700;23.304;2023-03-26T06:29:17;94848.19;;;11.91;100.00
5500;BME280;2772;42.700;23.304;2023-03-26T06:31:45;94850.56;;;11.84;100.00
5500;BME280;2772;42.700;23.304;2023-03-26T06:34:12;94837.06;;;11.89;100.00
5500;BME280;2772;42.700;23.304;2023-03-26T06:36:39;94835.63;;;11.91;100.00
5500;BME280;2772;42.700;23.304;2023-03-26T06:39:06;94840.84;;;11.88;100.00
5500;BME280;2772;42.700;23.304;2023-03-26T06:41:32;94829.38;;;11.87;100.00
5500;BME280;2772;42.700;23.304;2023-03-26T06:43:59;94841.00;;;11.83;100.00
5500;BME280;2772;42.700;23.304;2023-03-26T06:46:26;94844.59;;;11.87;100.00
5500;BME280;2772;42.700;23.304;2023-03-26T06:48:54;94850.69;;;11.96;100.00
5500;BME280;2772;42.700;23.304;2023-03-26T06:51:21;94853.69;;;11.94;100.00
5500;BME280;2772;42.700;23.304;2023-03-26T06:53:48;94855.25;;;11.87;100.00
5500;BME280;2772;42.700;23.304;2023-03-26T06:56:14;94867.63;;;11.91;100.00
5500;BME280;2772;42.700;23.304;2023-03-26T06:58:41;94873.28;;;11.90;100.00
5500;BME280;2772;42.700;23.304;2023-03-26T07:01:08;94875.03;;;11.94;100.00
5500;BME280;2772;42.700;23.304;2023-03-26T07:03:35;94871.19;;;12.04;100.00
5500;BME280;2772;42.700;23.304;2023-03-26T07:06:03;94872.00;;;12.04;100.00
5500;BME280;2772;42.700;23.304;2023-03-26T07:08:30;94880.47;;;12.06;100.00
5500;BME280;2772;42.700;23.304;2023-03-26T07:10:57;94872.00;;;12.04;100.00
5500;BME280;2772;42.700;23.304;2023-03-26T07:13:23;94874.03;;;12.07;100.00
5500;BME280;2772;42.700;23.304;2023-03-26T07:15:50;94869.31;;;12.13;100.00
5500;BME280;2772;42.700;23.304;2023-03-26T07:18:17;94869.84;;;12.27;100.00
5500;BME280;2772;42.700;23.304;2023-03-26T07:20:44;94855.94;;;12.13;100.00
5500;BME280;2772;42.700;23.304;2023-03-26T07:23:12;94861.13;;;12.38;100.00
5500;BME280;2772;42.700;23.304;2023-03-26T07:25:45;94861.63;;;12.32;100.00
5500;BME280;2772;42.700;23.304;2023-03-26T07:28:19;94866.06;;;12.28;100.00
5500;BME280;2772;42.700;23.304;2023-03-26T07:30:58;94860.50;;;12.41;100.00
5500;BME280;2772;42.700;23.304;2023-03-26T07:33:30;94845.59;;;12.40;100.00
5500;BME280;2772;42.700;23.304;2023-03-26T07:36:07;94848.13;;;12.57;100.00
5500;BME280;2772;42.700;23.304;2023-03-26T07:38:51;94839.75;;;12.67;100.00
5500;BME280;2772;42.700;23.304;2023-03-26T07:41:24;94849.13;;;12.73;100.00
5500;BME280;2772;42.700;23.304;2023-03-26T07:44:03;94851.22;;;12.68;100.00
5500;BME280;2772;42.700;23.304;2023-03-26T07:46:33;94845.34;;;12.74;100.00
5500;BME280;2772;42.700;23.304;2023-03-26T07:49:02;94841.97;;;12.86;100.00
5500;BME280;2772;42.700;23.304;2023-03-26T07:51:29;94855.16;;;12.91;100.00
5500;BME280;2772;42.700;23.304;2023-03-26T07:53:58;94855.53;;;12.81;100.00
5500;BME280;2772;42.700;23.304;2023-03-26T07:56:30;94834.31;;;12.97;100.00
5500;BME280;2772;42.700;23.304;2023-03-26T07:59:07;94841.78;;;12.91;100.00
5500;BME280;2772;42.700;23.304;2023-03-26T08:01:44;94843.75;;;13.03;100.00
5500;BME280;2772;42.700;23.304;2023-03-26T08:04:30;94850.09;;;12.90;94.88
5500;BME280;2772;42.700;23.304;2023-03-26T08:07:04;94836.69;;;12.98;94.08
5500;BME280;2772;42.700;23.304;2023-03-26T08:09:40;94841.06;;;13.03;87.48
5500;BME280;2772;42.700;23.304;2023-03-26T08:12:17;94843.47;;;12.96;85.28
5500;BME280;2772;42.700;23.304;2023-03-26T08:14:51;94836.00;;;13.10;86.65
5500;BME280;2772;42.700;23.304;2023-03-26T08:17:28;94834.81;;;13.19;90.12
5500;BME280;2772;42.700;23.304;2023-03-26T08:20:04;94839.94;;;13.24;84.29
5500;BME280;2772;42.700;23.304;2023-03-26T08:22:36;94842.38;;;13.17;82.90
5500;BME280;2772;42.700;23.304;2023-03-26T08:25:25;94843.38;;;13.25;84.02
5500;BME280;2772;42.700;23.304;2023-03-26T08:28:03;94844.75;;;13.31;85.44
5500;BME280;2772;42.700;23.304;2023-03-26T08:30:30;94836.19;;;13.37;85.09
5500;BME280;2772;42.700;23.304;2023-03-26T08:32:59;94847.09;;;13.32;80.43
5500;BME280;2772;42.700;23.304;2023-03-26T08:35:27;94843.84;;;13.27;81.78
5500;BME280;2772;42.700;23.304;2023-03-26T08:37:55;94843.69;;;13.44;82.39
5500;BME280;2772;42.700;23.304;2023-03-26T08:40:39;94843.91;;;13.51;81.33
5500;BME280;2772;42.700;23.304;2023-03-26T08:43:28;94837.03;;;13.62;79.74
5500;BME280;2772;42.700;23.304;2023-03-26T08:46:23;94837.34;;;13.60;77.48
5500;BME280;2772;42.700;23.304;2023-03-26T08:49:11;94838.47;;;13.59;77.26
5500;BME280;2772;42.700;23.304;2023-03-26T08:54:46;94848.88;;;13.85;77.48
5500;BME280;2772;42.700;23.304;2023-03-26T09:03:22;94838.22;;;13.97;76.68
5500;BME280;2772;42.700;23.304;2023-03-26T09:09:44;94851.94;;;14.07;71.64
5500;BME280;2772;42.700;23.304;2023-03-26T09:18:51;94826.38;;;14.10;69.29
5500;BME280;2772;42.700;23.304;2023-03-26T09:21:47;94827.06;;;14.19;68.04
5500;BME280;2772;42.700;23.304;2023-03-26T09:24:42;94821.50;;;14.24;67.47
5500;BME280;2772;42.700;23.304;2023-03-26T09:27:30;94831.88;;;14.25;66.64
5500;BME280;2772;42.700;23.304;2023-03-26T09:33:28;94828.06;;;14.39;66.24
5500;BME280;2772;42.700;23.304;2023-03-26T09:36:18;94823.28;;;14.32;64.79
5500;BME280;2772;42.700;23.304;2023-03-26T09:38:50;94812.91;;;14.30;67.43
5500;BME280;2772;42.700;23.304;2023-03-26T09:41:26;94809.41;;;14.18;68.69
5500;BME280;2772;42.700;23.304;2023-03-26T09:44:26;94811.53;;;14.37;68.75
5500;BME280;2772;42.700;23.304;2023-03-26T09:50:21;94807.84;;;14.41;61.60
5500;BME280;2772;42.700;23.304;2023-03-26T09:53:07;94801.94;;;14.48;61.72
5500;BME280;2772;42.700;23.304;2023-03-26T09:55:52;94800.50;;;14.50;61.21
5500;BME280;2772;42.700;23.304;2023-03-26T09:58:37;94792.00;;;14.48;61.26
5500;BME280;2772;42.700;23.304;2023-03-26T10:01:10;94798.56;;;14.63;61.14
5500;BME280;2772;42.700;23.304;2023-03-26T10:03:44;94785.91;;;14.75;61.74
5500;BME280;2772;42.700;23.304;2023-03-26T10:06:38;94781.31;;;14.76;58.42
5500;BME280;2772;42.700;23.304;2023-03-26T10:09:21;94793.91;;;14.87;59.53
5500;BME280;2772;42.700;23.304;2023-03-26T10:12:11;94775.59;;;14.89;56.67
5500;BME280;2772;42.700;23.304;2023-03-26T10:14:47;94780.28;;;14.92;55.73
5500;BME280;2772;42.700;23.304;2023-03-26T10:17:32;94772.50;;;15.03;55.90
5500;BME280;2772;42.700;23.304;2023-03-26T10:20:24;94755.97;;;15.01;56.40
5500;BME280;2772;42.700;23.304;2023-03-26T10:23:02;94756.53;;;15.06;54.90
5500;BME280;2772;42.700;23.304;2023-03-26T10:25:49;94749.44;;;15.14;55.91
5500;BME280;2772;42.700;23.304;2023-03-26T10:28:36;94740.63;;;15.29;56.64
5500;BME280;2772;42.700;23.304;2023-03-26T10:31:22;94739.47;;;15.42;55.07
5500;BME280;2772;42.700;23.304;2023-03-26T10:33:58;94746.88;;;15.33;52.96
5500;BME280;2772;42.700;23.304;2023-03-26T10:36:31;94741.75;;;15.28;52.48
5500;BME280;2772;42.700;23.304;2023-03-26T10:39:19;94747.09;;;15.40;52.13
5500;BME280;2772;42.700;23.304;2023-03-26T10:41:57;94717.03;;;15.34;51.42
5500;BME280;2772;42.700;23.304;2023-03-26T10:47:42;94729.44;;;15.39;50.71
5500;BME280;2772;42.700;23.304;2023-03-26T10:50:47;94713.25;;;15.51;50.20
5500;BME280;2772;42.700;23.304;2023-03-26T10:53:25;94712.97;;;15.56;49.31
5500;BME280;2772;42.700;23.304;2023-03-26T10:56:00;94714.63;;;15.60;49.09
5500;BME280;2772;42.700;23.304;2023-03-26T10:58:31;94717.66;;;15.59;47.58
5500;BME280;2772;42.700;23.304;2023-03-26T11:01:00;94707.00;;;15.62;47.98
5500;BME280;2772;42.700;23.304;2023-03-26T11:03:40;94699.22;;;15.57;48.20
5500;BME280;2772;42.700;23.304;2023-03-26T11:06:24;94709.50;;;15.71;50.81
5500;BME280;2772;42.700;23.304;2023-03-26T11:08:56;94693.31;;;15.67;47.05
5500;BME280;2772;42.700;23.304;2023-03-26T11:11:33;94701.09;;;15.72;45.86
5500;BME280;2772;42.700;23.304;2023-03-26T11:14:06;94700.34;;;15.72;46.02
5500;BME280;2772;42.700;23.304;2023-03-26T11:16:46;94686.97;;;15.75;47.43
5500;BME280;2772;42.700;23.304;2023-03-26T11:19:19;94682.38;;;15.92;44.27
5500;BME280;2772;42.700;23.304;2023-03-26T11:21:51;94688.59;;;15.96;44.97
5500;BME280;2772;42.700;23.304;2023-03-26T11:24:40;94687.03;;;15.95;44.64
5500;BME280;2772;42.700;23.304;2023-03-26T11:27:13;94691.97;;;15.93;43.84
5500;BME280;2772;42.700;23.304;2023-03-26T11:29:49;94691.81;;;15.85;44.32
5500;BME280;2772;42.700;23.304;2023-03-26T11:32:21;94686.94;;;15.91;44.37
5500;BME280;2772;42.700;23.304;2023-03-26T11:34:56;94676.72;;;15.97;43.51
5500;BME280;2772;42.700;23.304;2023-03-26T11:37:31;94672.84;;;15.78;44.71
5500;BME280;2772;42.700;23.304;2023-03-26T11:40:01;94667.09;;;15.96;44.61
5500;BME280;2772;42.700;23.304;2023-03-26T11:42:33;94672.63;;;16.03;43.30
5500;BME280;2772;42.700;23.304;2023-03-26T11:45:02;94656.09;;;16.01;42.79
5500;BME280;2772;42.700;23.304;2023-03-26T11:47:34;94644.81;;;16.11;42.55
5500;BME280;2772;42.700;23.304;2023-03-26T11:50:05;94638.84;;;16.21;42.30
5500;BME280;2772;42.700;23.304;2023-03-26T11:52:35;94619.41;;;16.27;42.55
5500;BME280;2772;42.700;23.304;2023-03-26T11:55:02;94626.41;;;16.32;42.74
5500;BME280;2772;42.700;23.304;2023-03-26T11:57:30;94628.09;;;16.21;41.63
5500;BME280;2772;42.700;23.304;2023-03-26T12:00:02;94624.78;;;16.27;42.36
5500;BME280;2772;42.700;23.304;2023-03-26T12:02:37;94619.13;;;16.32;42.93
5500;BME280;2772;42.700;23.304;2023-03-26T12:05:18;94613.97;;;16.24;40.72
5500;BME280;2772;42.700;23.304;2023-03-26T12:07:50;94609.94;;;16.33;40.48
5500;BME280;2772;42.700;23.304;2023-03-26T12:10:26;94605.69;;;16.32;39.98
5500;BME280;2772;42.700;23.304;2023-03-26T12:12:57;94598.78;;;16.31;39.45
5500;BME280;2772;42.700;23.304;2023-03-26T12:15:26;94603.69;;;16.45;39.19
5500;BME280;2772;42.700;23.304;2023-03-26T12:17:55;94593.13;;;16.55;40.68
5500;BME280;2772;42.700;23.304;2023-03-26T12:20:34;94584.28;;;16.55;39.57
5500;BME280;2772;42.700;23.304;2023-03-26T12:23:04;94594.09;;;16.66;38.93
5500;BME280;2772;42.700;23.304;2023-03-26T12:25:33;94566.38;;;16.62;39.40
5500;BME280;2772;42.700;23.304;2023-03-26T12:28:02;94571.69;;;16.59;37.21
5500;BME280;2772;42.700;23.304;2023-03-26T12:30:32;94565.59;;;16.62;38.02
5500;BME280;2772;42.700;23.304;2023-03-26T12:33:00;94568.41;;;16.69;35.90
5500;BME280;2772;42.700;23.304;2023-03-26T12:35:30;94565.66;;;16.65;36.95
5500;BME280;2772;42.700;23.304;2023-03-26T12:38:20;94559.28;;;16.73;37.04
5500;BME280;2772;42.700;23.304;2023-03-26T12:40:48;94551.56;;;16.72;35.70
5500;BME280;2772;42.700;23.304;2023-03-26T12:43:24;94549.69;;;16.76;34.48
5500;BME280;2772;42.700;23.304;2023-03-26T12:45:56;94550.84;;;16.75;34.28
5500;BME280;2772;42.700;23.304;2023-03-26T12:48:24;94534.72;;;16.75;35.16
5500;BME280;2772;42.700;23.304;2023-03-26T12:51:03;94534.06;;;16.81;35.29
5500;BME280;2772;42.700;23.304;2023-03-26T12:53:48;94525.31;;;16.88;34.96
5500;BME280;2772;42.700;23.304;2023-03-26T12:56:21;94535.69;;;16.89;33.77
5500;BME280;2772;42.700;23.304;2023-03-26T12:59:12;94528.34;;;16.86;33.34
5500;BME280;2772;42.700;23.304;2023-03-26T13:01:53;94529.88;;;16.84;33.67
5500;BME280;2772;42.700;23.304;2023-03-26T13:04:38;94532.63;;;16.87;32.02
5500;BME280;2772;42.700;23.304;2023-03-26T13:07:15;94544.63;;;16.93;31.94
5500;BME280;2772;42.700;23.304;2023-03-26T13:10:21;94535.78;;;16.93;32.64
5500;BME280;2772;42.700;23.304;2023-03-26T13:12:59;94529.38;;;17.01;32.67
5500;BME280;2772;42.700;23.304;2023-03-26T13:15:31;94514.00;;;17.01;31.53
5500;BME280;2772;42.700;23.304;2023-03-26T13:18:12;94517.22;;;17.10;31.91
5500;BME280;2772;42.700;23.304;2023-03-26T13:20:50;94519.50;;;17.08;30.90
5500;BME280;2772;42.700;23.304;2023-03-26T13:23:27;94530.81;;;16.95;30.19
5500;BME280;2772;42.700;23.304;2023-03-26T13:26:02;94528.00;;;16.88;30.74
5500;BME280;2772;42.700;23.304;2023-03-26T13:28:41;94530.03;;;16.94;31.77
5500;BME280;2772;42.700;23.304;2023-03-26T13:31:17;94526.63;;;16.97;32.08
5500;BME280;2772;42.700;23.304;2023-03-26T13:33:53;94515.56;;;17.02;32.66
5500;BME280;2772;42.700;23.304;2023-03-26T13:36:31;94526.31;;;17.02;31.81
5500;BME280;2772;42.700;23.304;2023-03-26T13:39:13;94513.94;;;16.98;31.12
5500;BME280;2772;42.700;23.304;2023-03-26T13:41:54;94520.69;;;17.11;31.82
5500;BME280;2772;42.700;23.304;2023-03-26T13:44:31;94512.72;;;17.18;31.77
5500;BME280;2772;42.700;23.304;2023-03-26T13:47:02;94508.94;;;17.22;32.80
5500;BME280;2772;42.700;23.304;2023-03-26T13:49:36;94504.75;;;17.25;32.62
5500;BME280;2772;42.700;23.304;2023-03-26T13:52:07;94503.41;;;17.12;31.41
5500;BME280;2772;42.700;23.304;2023-03-26T13:54:39;94508.72;;;17.08;31.79
5500;BME280;2772;42.700;23.304;2023-03-26T13:57:12;94500.28;;;17.10;32.45
5500;BME280;2772;42.700;23.304;2023-03-26T13:59:44;94503.03;;;17.13;32.85
5500;BME280;2772;42.700;23.304;2023-03-26T14:02:18;94502.00;;;17.21;31.15
5500;BME280;2772;42.700;23.304;2023-03-26T14:04:52;94491.03;;;17.07;30.51